Chicago, Illinois
Traffic Map
Current Weather Conditions
Chicago, Illinois
Few Clouds
Few Clouds
11°
Feels Like: 11°
Wind Chill: 11° Ceiling: Unl
Heat Index: 11° Visibility: 10mi
Dew Point: Wind: 6mph
Humidity: 83% Direction: 260° (W)
Pressure: 29.82in Gusts: 0mph
Raw Report DataKMDW 201253Z 26005KT 10SM FEW070 11/08 A2982 RMK AO2 SLP100 T01060078
Traffic Incident Summary
Active as of:
Severity:
Category:
InformationThere was an issue retrieving the traffic information for this location. Please try a different location or try again shortly.
Advertisements
Track Severe Weather on mobile